Time;durP1;ratioP1;P1;durP2;ratioP2;P2;SDS_P1;SDS_P2;PMS_P1;PMS_P2;Temp;Humidity;BMP_temperature;BMP_pressure;BME280_temperature;BME280_humidity;BME280_pressure;Samples;Min_cycle;Max_cycle;Signal;HPM_P1;HPM_P2
2022/03/08 00:01:28;;;;;;;;;;;0.80;99.90;;;;;;4750993;30;19922;-78
2022/03/08 00:03:53;;;;;;;;;;;0.60;99.90;;;;;;4752310;30;19922;-78
2022/03/08 00:06:19;;;;;;;;;;;0.40;99.90;;;;;;4751797;30;19936;-78
2022/03/08 00:08:44;;;;;;;;;;;0.40;99.90;;;;;;4752393;30;19922;-78
2022/03/08 00:11:10;;;;;;;;;;;0.40;99.90;;;;;;4752235;30;20004;-78
2022/03/08 00:13:36;;;;;;;;;;;0.40;99.90;;;;;;4752290;30;20033;-78
2022/03/08 00:16:01;;;;;;;;;;;0.40;99.90;;;;;;4752308;30;19922;-78
2022/03/08 00:18:26;;;;;;;;;;;0.40;99.90;;;;;;4752551;30;19922;-78
2022/03/08 00:20:52;;;;;;;;;;;0.30;99.90;;;;;;4751814;30;19922;-78
2022/03/08 00:23:17;;;;;;;;;;;0.30;99.90;;;;;;4752041;30;20045;-77
2022/03/08 00:25:43;;;;;;;;;;;0.30;99.90;;;;;;4752066;30;20112;-77
2022/03/08 00:28:09;;;;;;;;;;;0.20;99.90;;;;;;4737647;30;19922;-77
2022/03/08 00:30:34;;;;;;;;;;;0.10;99.90;;;;;;4752158;30;19929;-77
2022/03/08 00:33:00;;;;;;;;;;;0.00;99.90;;;;;;4753350;30;20068;-77
2022/03/08 00:35:26;;;;;;;;;;;-0.10;99.90;;;;;;4751898;30;19922;-77
2022/03/08 00:37:53;;;;;;;;;;;-0.20;99.90;;;;;;4751289;30;19922;-77
2022/03/08 00:40:20;;;;;;;;;;;-0.20;99.90;;;;;;4752200;30;19922;-77
2022/03/08 00:42:46;;;;;;;;;;;-0.20;99.90;;;;;;4752030;30;19922;-77
2022/03/08 00:45:12;;;;;;;;;;;-0.30;99.90;;;;;;4751512;30;19937;-77
2022/03/08 00:47:39;;;;;;;;;;;-0.30;99.90;;;;;;4750717;30;19975;-78
2022/03/08 00:50:06;;;;;;;;;;;-0.30;99.90;;;;;;4751626;30;20293;-78
2022/03/08 00:52:32;;;;;;;;;;;-0.40;99.90;;;;;;4751261;30;19961;-78
2022/03/08 00:54:57;;;;;;;;;;;-0.40;99.90;;;;;;4751503;30;20001;-78
2022/03/08 00:57:23;;;;;;;;;;;-0.50;99.90;;;;;;4751726;30;19923;-78
2022/03/08 00:59:48;;;;;;;;;;;-0.50;99.90;;;;;;4751826;30;19922;-78
2022/03/08 01:02:14;;;;;;;;;;;-0.50;99.90;;;;;;4751163;30;20400;-78
2022/03/08 01:04:39;;;;;;;;;;;-0.40;99.90;;;;;;4751426;30;19971;-78
2022/03/08 01:07:06;;;;;;;;;;;-0.40;99.90;;;;;;4751511;30;20324;-77
2022/03/08 01:09:31;;;;;;;;;;;-0.50;99.90;;;;;;4751106;30;20045;-77
2022/03/08 01:11:57;;;;;;;;;;;-0.50;99.90;;;;;;4751318;30;19922;-78
2022/03/08 01:14:22;;;;;;;;;;;-0.60;99.90;;;;;;4751160;30;19922;-78
2022/03/08 01:16:48;;;;;;;;;;;-0.60;99.90;;;;;;4751051;30;20017;-78
2022/03/08 01:19:13;;;;;;;;;;;-0.60;99.90;;;;;;4751171;30;19973;-78
2022/03/08 01:21:39;;;;;;;;;;;-0.70;99.90;;;;;;4751207;30;19926;-78
2022/03/08 01:24:05;;;;;;;;;;;-0.60;99.90;;;;;;4750901;30;20351;-78
2022/03/08 01:26:31;;;;;;;;;;;-0.60;99.90;;;;;;4750720;30;19930;-77
2022/03/08 01:28:57;;;;;;;;;;;-0.60;99.90;;;;;;4751394;30;20262;-78
2022/03/08 01:31:23;;;;;;;;;;;-0.60;99.90;;;;;;4751265;30;19922;-78
2022/03/08 01:33:49;;;;;;;;;;;-0.50;99.90;;;;;;4750947;30;19926;-78
2022/03/08 01:36:15;;;;;;;;;;;-0.40;99.90;;;;;;4750715;30;19922;-77
2022/03/08 01:38:40;;;;;;;;;;;-0.40;99.90;;;;;;4750695;30;19926;-77
2022/03/08 01:41:06;;;;;;;;;;;-0.40;99.90;;;;;;4750882;30;20008;-77
2022/03/08 01:43:32;;;;;;;;;;;-0.40;99.90;;;;;;4750959;30;19922;-77
2022/03/08 01:45:57;;;;;;;;;;;-0.50;99.90;;;;;;4749956;30;20456;-77
2022/03/08 01:48:23;;;;;;;;;;;-0.60;99.90;;;;;;4750633;30;19938;-77
2022/03/08 01:50:48;;;;;;;;;;;-0.60;99.90;;;;;;4750678;30;19957;-77
2022/03/08 01:53:14;;;;;;;;;;;-0.70;99.90;;;;;;4750486;30;20337;-78
2022/03/08 01:55:40;;;;;;;;;;;-0.70;99.90;;;;;;4750330;30;20005;-78
2022/03/08 01:58:05;;;;;;;;;;;-0.70;99.90;;;;;;4750406;30;19922;-78
2022/03/08 02:00:31;;;;;;;;;;;-0.80;99.90;;;;;;4750589;30;19922;-78
2022/03/08 02:02:57;;;;;;;;;;;-0.80;99.90;;;;;;4750385;30;19922;-78
2022/03/08 02:05:23;;;;;;;;;;;-0.90;99.90;;;;;;4750393;30;19926;-77
2022/03/08 02:07:49;;;;;;;;;;;-0.90;99.90;;;;;;4750345;30;19970;-77
2022/03/08 02:10:14;;;;;;;;;;;-0.90;99.90;;;;;;4750365;30;19922;-77
2022/03/08 02:12:40;;;;;;;;;;;-0.90;99.90;;;;;;4750613;30;20263;-77
2022/03/08 02:15:13;;;;;;;;;;;-0.90;99.90;;;;;;4750478;30;19979;-77
2022/03/08 02:17:38;;;;;;;;;;;-1.00;99.90;;;;;;4750301;30;19964;-77
2022/03/08 02:20:04;;;;;;;;;;;-1.00;99.90;;;;;;4750133;30;19988;-77
2022/03/08 02:22:29;;;;;;;;;;;-1.00;99.90;;;;;;4750289;30;20362;-77
2022/03/08 02:24:55;;;;;;;;;;;-1.00;99.90;;;;;;4734709;30;19929;-77
2022/03/08 02:27:21;;;;;;;;;;;-1.00;99.90;;;;;;4749967;30;20283;-77
2022/03/08 02:29:47;;;;;;;;;;;-1.10;99.90;;;;;;4750380;30;20334;-77
2022/03/08 02:32:12;;;;;;;;;;;-1.10;99.90;;;;;;4749795;30;20000;-77
2022/03/08 02:34:38;;;;;;;;;;;-1.20;99.90;;;;;;4750196;30;19981;-77
2022/03/08 02:37:06;;;;;;;;;;;-1.20;99.90;;;;;;4749279;30;20382;-77
2022/03/08 02:39:31;;;;;;;;;;;-1.20;99.90;;;;;;4750022;30;19954;-77
2022/03/08 02:41:57;;;;;;;;;;;-1.20;99.90;;;;;;4749785;30;19922;-77
2022/03/08 02:44:22;;;;;;;;;;;-1.20;99.90;;;;;;4749985;30;19961;-77
2022/03/08 02:46:48;;;;;;;;;;;-1.30;99.90;;;;;;4749664;30;19926;-77
2022/03/08 02:49:13;;;;;;;;;;;-1.30;99.90;;;;;;4749973;30;19929;-77
2022/03/08 02:51:39;;;;;;;;;;;-1.30;99.90;;;;;;4749620;30;19921;-77
2022/03/08 02:54:04;;;;;;;;;;;-1.40;99.90;;;;;;4749165;30;20045;-77
2022/03/08 02:56:30;;;;;;;;;;;-1.40;99.90;;;;;;4749673;30;19926;-78
2022/03/08 02:58:55;;;;;;;;;;;-1.40;99.90;;;;;;4749253;30;20341;-78
2022/03/08 03:01:21;;;;;;;;;;;-1.40;99.90;;;;;;4750078;30;19929;-77
2022/03/08 03:03:46;;;;;;;;;;;-1.40;99.90;;;;;;4749625;30;20008;-77
2022/03/08 03:06:12;;;;;;;;;;;-1.40;99.90;;;;;;4749820;30;19927;-77
2022/03/08 03:08:37;;;;;;;;;;;-1.40;99.90;;;;;;4749549;30;19929;-77
2022/03/08 03:11:02;;;;;;;;;;;-1.40;99.90;;;;;;4752689;30;19961;-77
2022/03/08 03:13:28;;;;;;;;;;;-1.40;99.90;;;;;;4753407;30;19922;-77
2022/03/08 03:15:53;;;;;;;;;;;-1.40;99.90;;;;;;4752930;30;20344;-77
2022/03/08 03:18:19;;;;;;;;;;;-1.40;99.90;;;;;;4753634;30;19926;-77
2022/03/08 03:20:44;;;;;;;;;;;-1.50;99.90;;;;;;4753324;30;20024;-77
2022/03/08 03:23:10;;;;;;;;;;;-1.50;99.90;;;;;;4753142;30;19982;-77
2022/03/08 03:25:35;;;;;;;;;;;-1.50;99.90;;;;;;4752660;30;19926;-77
2022/03/08 03:28:01;;;;;;;;;;;-1.50;99.90;;;;;;4753119;30;19922;-77
2022/03/08 03:30:26;;;;;;;;;;;-1.50;99.90;;;;;;4753066;30;19922;-77
2022/03/08 03:32:52;;;;;;;;;;;-1.50;99.90;;;;;;4752980;30;19922;-78
2022/03/08 03:35:17;;;;;;;;;;;-1.50;99.90;;;;;;4752916;30;19941;-78
2022/03/08 03:37:43;;;;;;;;;;;-1.50;99.90;;;;;;4752833;30;19922;-77
2022/03/08 03:40:09;;;;;;;;;;;-1.60;99.90;;;;;;4752856;30;20275;-77
2022/03/08 03:42:35;;;;;;;;;;;-1.50;99.90;;;;;;4752944;30;19922;-77
2022/03/08 03:45:00;;;;;;;;;;;-1.50;99.90;;;;;;4737945;30;19930;-77
2022/03/08 03:47:26;;;;;;;;;;;-1.50;99.90;;;;;;4752698;30;19962;-78
2022/03/08 03:49:52;;;;;;;;;;;-1.50;99.90;;;;;;4752869;30;19922;-76
2022/03/08 03:52:17;;;;;;;;;;;-1.50;99.90;;;;;;4752807;30;19922;-76
2022/03/08 03:54:42;;;;;;;;;;;-1.50;99.90;;;;;;4752632;30;19929;-77
2022/03/08 03:57:11;;;;;;;;;;;-1.50;99.90;;;;;;4752590;30;19999;-77
2022/03/08 03:59:37;;;;;;;;;;;-1.50;99.90;;;;;;4752818;30;20032;-77
2022/03/08 04:02:03;;;;;;;;;;;-1.50;99.90;;;;;;4752441;30;20024;-77
2022/03/08 04:04:28;;;;;;;;;;;-1.50;99.90;;;;;;4752266;30;19958;-77
2022/03/08 04:06:54;;;;;;;;;;;-1.60;99.90;;;;;;4752328;30;20020;-77
2022/03/08 04:09:19;;;;;;;;;;;-1.60;99.90;;;;;;4752700;30;19933;-77
2022/03/08 04:11:45;;;;;;;;;;;-1.60;99.90;;;;;;4737786;30;19949;-76
2022/03/08 04:14:10;;;;;;;;;;;-1.60;99.90;;;;;;4752180;30;20409;-77
2022/03/08 04:16:36;;;;;;;;;;;-1.60;99.90;;;;;;4752424;30;19929;-77
2022/03/08 04:19:01;;;;;;;;;;;-1.70;99.90;;;;;;4751698;30;19979;-77
2022/03/08 04:21:27;;;;;;;;;;;-1.70;99.90;;;;;;4752230;30;20025;-78
2022/03/08 04:23:52;;;;;;;;;;;-1.70;99.90;;;;;;4752203;30;19922;-77
2022/03/08 04:26:18;;;;;;;;;;;-1.60;99.90;;;;;;4751781;30;20074;-77
2022/03/08 04:28:43;;;;;;;;;;;-1.60;99.90;;;;;;4751756;30;19922;-77
2022/03/08 04:31:09;;;;;;;;;;;-1.60;99.90;;;;;;4752800;30;19922;-76
2022/03/08 04:33:34;;;;;;;;;;;-1.60;99.90;;;;;;4752109;30;20422;-77
2022/03/08 04:36:00;;;;;;;;;;;-1.70;99.90;;;;;;4752788;30;19926;-76
2022/03/08 04:38:25;;;;;;;;;;;-1.70;99.90;;;;;;4751948;30;20013;-77
2022/03/08 04:40:50;;;;;;;;;;;-1.70;99.90;;;;;;4751842;30;19971;-76
2022/03/08 04:43:16;;;;;;;;;;;-1.70;99.90;;;;;;4751451;30;19922;-76
2022/03/08 04:45:41;;;;;;;;;;;-1.70;99.90;;;;;;4751709;30;19926;-77
2022/03/08 04:48:07;;;;;;;;;;;-1.80;99.90;;;;;;4751832;30;20421;-76
2022/03/08 04:50:32;;;;;;;;;;;-1.80;99.90;;;;;;4751703;30;19922;-77
2022/03/08 04:52:58;;;;;;;;;;;-1.90;99.90;;;;;;4751482;30;19922;-76
2022/03/08 04:55:23;;;;;;;;;;;-1.90;99.90;;;;;;4751570;30;19921;-77
2022/03/08 04:57:49;;;;;;;;;;;-1.90;99.90;;;;;;4751201;30;19922;-76
2022/03/08 05:00:16;;;;;;;;;;;-1.90;99.90;;;;;;4751745;30;19929;-76
2022/03/08 05:02:42;;;;;;;;;;;-2.00;99.90;;;;;;4751847;30;20282;-76
2022/03/08 05:05:08;;;;;;;;;;;-2.00;99.90;;;;;;4751260;30;19980;-76
2022/03/08 05:07:38;;;;;;;;;;;-2.00;99.90;;;;;;4751196;30;19933;-77
2022/03/08 05:10:04;;;;;;;;;;;-2.00;99.90;;;;;;4751122;30;19929;-76
2022/03/08 05:12:30;;;;;;;;;;;-2.00;99.90;;;;;;4750910;30;19926;-76
2022/03/08 05:14:56;;;;;;;;;;;-2.00;99.90;;;;;;4750915;30;20000;-76
2022/03/08 05:17:21;;;;;;;;;;;-1.90;99.90;;;;;;4750947;30;19922;-76
2022/03/08 05:19:47;;;;;;;;;;;-1.90;99.90;;;;;;4750911;30;19922;-76
2022/03/08 05:22:13;;;;;;;;;;;-2.00;99.90;;;;;;4751160;30;19930;-76
2022/03/08 05:24:38;;;;;;;;;;;-2.00;99.90;;;;;;4751142;30;19922;-76
2022/03/08 05:27:05;;;;;;;;;;;-2.00;99.90;;;;;;4751655;30;19926;-76
2022/03/08 05:29:31;;;;;;;;;;;-2.00;99.90;;;;;;4750734;30;19930;-76
2022/03/08 05:31:56;;;;;;;;;;;-2.00;99.90;;;;;;4750679;30;19928;-76
2022/03/08 05:34:22;;;;;;;;;;;-2.10;99.90;;;;;;4750887;30;19922;-76
2022/03/08 05:36:47;;;;;;;;;;;-2.00;99.90;;;;;;4750670;30;19922;-77
2022/03/08 05:39:13;;;;;;;;;;;-2.00;99.90;;;;;;4750509;30;20275;-77
2022/03/08 05:41:38;;;;;;;;;;;-2.10;99.90;;;;;;4750711;30;19979;-76
2022/03/08 05:44:04;;;;;;;;;;;-2.10;99.90;;;;;;4750709;30;20424;-76
2022/03/08 05:46:29;;;;;;;;;;;-2.10;99.90;;;;;;4735797;30;19933;-76
2022/03/08 05:48:55;;;;;;;;;;;-2.10;99.90;;;;;;4750301;30;19929;-76
2022/03/08 05:51:20;;;;;;;;;;;-2.00;99.90;;;;;;4750973;30;19933;-76
2022/03/08 05:53:46;;;;;;;;;;;-2.00;99.90;;;;;;4750915;30;20459;-76
2022/03/08 05:56:11;;;;;;;;;;;-2.00;99.90;;;;;;4750371;30;20241;-76
2022/03/08 05:58:37;;;;;;;;;;;-2.00;99.90;;;;;;4750324;30;19979;-76
2022/03/08 06:01:02;;;;;;;;;;;-2.10;99.90;;;;;;4750240;30;20381;-76
2022/03/08 06:03:28;;;;;;;;;;;-2.10;99.90;;;;;;4750460;30;19929;-76
2022/03/08 06:05:53;;;;;;;;;;;-2.00;99.90;;;;;;4750585;30;19933;-76
2022/03/08 06:08:19;;;;;;;;;;;-2.10;99.90;;;;;;4750407;30;19961;-76
2022/03/08 06:10:44;;;;;;;;;;;-2.00;99.90;;;;;;4749102;30;20339;-76
2022/03/08 06:13:09;;;;;;;;;;;-2.00;99.90;;;;;;4750550;30;19928;-76
2022/03/08 06:15:35;;;;;;;;;;;-2.00;99.90;;;;;;4750246;30;19922;-77
2022/03/08 06:18:00;;;;;;;;;;;-2.00;99.90;;;;;;4750067;30;19933;-77
2022/03/08 06:20:26;;;;;;;;;;;-1.90;99.90;;;;;;4750304;30;19929;-77
2022/03/08 06:22:53;;;;;;;;;;;-1.90;99.90;;;;;;4750756;30;19922;-77
2022/03/08 06:25:19;;;;;;;;;;;-1.90;99.90;;;;;;4749964;30;20079;-77
2022/03/08 06:27:44;;;;;;;;;;;-1.80;99.90;;;;;;4750135;30;20426;-78
2022/03/08 06:30:10;;;;;;;;;;;-1.80;99.90;;;;;;4750188;30;19925;-75
2022/03/08 06:32:36;;;;;;;;;;;-1.80;99.90;;;;;;4750217;30;20399;-77
2022/03/08 06:35:01;;;;;;;;;;;-1.70;99.90;;;;;;4749563;30;19922;-77
2022/03/08 06:37:27;;;;;;;;;;;-1.60;99.90;;;;;;4750212;30;20309;-77
2022/03/08 06:39:52;;;;;;;;;;;-1.50;99.90;;;;;;4750060;30;19998;-77
2022/03/08 06:42:18;;;;;;;;;;;-1.30;99.90;;;;;;4735278;30;20016;-77
2022/03/08 06:44:44;;;;;;;;;;;-1.20;99.90;;;;;;4749817;30;19929;-77
2022/03/08 06:47:10;;;;;;;;;;;-1.10;99.90;;;;;;4749730;30;20013;-77
2022/03/08 06:49:39;;;;;;;;;;;-0.90;99.90;;;;;;4750120;30;19922;-77
2022/03/08 06:52:05;;;;;;;;;;;-0.80;99.90;;;;;;4749690;30;20009;-77
2022/03/08 06:54:31;;;;;;;;;;;-0.70;99.90;;;;;;4750816;30;19983;-77
2022/03/08 06:56:56;;;;;;;;;;;-0.60;99.90;;;;;;4749819;30;19922;-77
2022/03/08 06:59:22;;;;;;;;;;;-0.50;99.90;;;;;;4749727;30;19969;-77
2022/03/08 07:01:48;;;;;;;;;;;-0.40;99.90;;;;;;4750068;30;20305;-77
2022/03/08 07:04:13;;;;;;;;;;;-0.30;99.90;;;;;;4749520;30;19922;-77
2022/03/08 07:06:39;;;;;;;;;;;-0.10;99.90;;;;;;4750516;30;19966;-77
2022/03/08 07:09:05;;;;;;;;;;;-0.10;99.90;;;;;;4750012;30;19922;-77
2022/03/08 07:11:31;;;;;;;;;;;0.00;99.90;;;;;;4749681;30;20389;-77
2022/03/08 07:13:56;;;;;;;;;;;0.00;99.90;;;;;;4749512;30;19922;-77
2022/03/08 07:16:22;;;;;;;;;;;0.10;99.90;;;;;;4749725;30;19929;-77
2022/03/08 07:18:48;;;;;;;;;;;0.10;99.90;;;;;;4749729;30;19922;-78
2022/03/08 07:21:13;;;;;;;;;;;0.20;99.90;;;;;;4749556;30;19928;-78
2022/03/08 07:23:39;;;;;;;;;;;0.20;99.90;;;;;;4749251;30;19929;-77
2022/03/08 07:26:05;;;;;;;;;;;0.30;99.90;;;;;;4749474;30;19948;-77
2022/03/08 07:28:31;;;;;;;;;;;0.40;99.90;;;;;;4749680;30;19926;-77
2022/03/08 07:30:56;;;;;;;;;;;0.50;99.90;;;;;;4749675;30;19922;-77
2022/03/08 07:33:21;;;;;;;;;;;0.60;99.90;;;;;;4749548;30;19929;-77
2022/03/08 07:35:47;;;;;;;;;;;0.70;99.90;;;;;;4749608;30;19922;-77
2022/03/08 07:38:13;;;;;;;;;;;0.80;99.90;;;;;;4749387;30;19933;-77
2022/03/08 07:40:39;;;;;;;;;;;0.90;99.90;;;;;;4749607;30;20365;-78
2022/03/08 07:43:04;;;;;;;;;;;1.10;99.90;;;;;;4734890;30;19969;-77
2022/03/08 07:45:30;;;;;;;;;;;1.10;99.90;;;;;;4749214;30;19979;-78
2022/03/08 07:47:56;;;;;;;;;;;1.20;99.90;;;;;;4749258;30;19926;-77
2022/03/08 07:50:25;;;;;;;;;;;1.30;99.90;;;;;;4749448;30;20239;-76
2022/03/08 07:52:51;;;;;;;;;;;1.50;99.90;;;;;;4748569;30;19926;-76
2022/03/08 07:55:17;;;;;;;;;;;1.50;99.90;;;;;;4749938;30;19945;-76
2022/03/08 07:57:42;;;;;;;;;;;1.70;99.90;;;;;;4752732;30;19921;-76
2022/03/08 08:00:09;;;;;;;;;;;1.80;99.90;;;;;;4752681;30;20036;-77
2022/03/08 08:02:35;;;;;;;;;;;1.90;99.90;;;;;;4737726;30;19922;-77
2022/03/08 08:05:00;;;;;;;;;;;2.00;99.90;;;;;;4752386;30;19926;-77
2022/03/08 08:07:26;;;;;;;;;;;2.10;99.90;;;;;;4752207;30;19930;-77
2022/03/08 08:09:51;;;;;;;;;;;2.30;99.90;;;;;;4752629;30;19952;-77
2022/03/08 08:12:17;;;;;;;;;;;2.40;99.90;;;;;;4752644;30;19922;-77
2022/03/08 08:14:42;;;;;;;;;;;2.50;99.90;;;;;;4752208;30;20437;-78
2022/03/08 08:17:08;;;;;;;;;;;2.70;99.90;;;;;;4752117;30;20029;-78
2022/03/08 08:19:33;;;;;;;;;;;2.90;99.90;;;;;;4752292;30;19929;-79
2022/03/08 08:21:59;;;;;;;;;;;3.00;99.90;;;;;;4737721;30;19944;-79
2022/03/08 08:24:24;;;;;;;;;;;3.20;99.90;;;;;;4751980;30;19962;-79
2022/03/08 08:26:50;;;;;;;;;;;3.40;99.90;;;;;;4752331;30;19926;-80
2022/03/08 08:29:15;;;;;;;;;;;3.50;99.90;;;;;;4752646;30;19929;-80
2022/03/08 08:31:41;;;;;;;;;;;3.80;99.90;;;;;;4752013;30;19926;-80
2022/03/08 08:34:06;;;;;;;;;;;3.90;99.90;;;;;;4751996;30;19983;-79
2022/03/08 08:36:32;;;;;;;;;;;4.10;99.90;;;;;;4751744;30;20374;-79
2022/03/08 08:38:57;;;;;;;;;;;4.30;99.90;;;;;;4751948;30;20044;-78
2022/03/08 08:41:23;;;;;;;;;;;4.40;99.90;;;;;;4752014;30;19922;-79
2022/03/08 08:43:48;;;;;;;;;;;4.50;99.90;;;;;;4751710;30;19922;-79
2022/03/08 08:46:14;;;;;;;;;;;4.70;99.90;;;;;;4751478;30;20359;-79
2022/03/08 08:48:39;;;;;;;;;;;4.80;99.90;;;;;;4751879;30;19928;-78
2022/03/08 08:51:05;;;;;;;;;;;4.90;99.90;;;;;;4751961;30;19952;-79
2022/03/08 08:53:30;;;;;;;;;;;5.10;99.90;;;;;;4751719;30;20373;-78
2022/03/08 08:55:56;;;;;;;;;;;5.20;99.90;;;;;;4751379;30;19975;-79
2022/03/08 08:58:21;;;;;;;;;;;5.30;99.90;;;;;;4751675;30;19922;-79
2022/03/08 09:00:46;;;;;;;;;;;5.40;99.90;;;;;;4751862;30;19929;-79
2022/03/08 09:03:14;;;;;;;;;;;5.50;99.90;;;;;;4751605;30;19922;-79
2022/03/08 09:05:44;;;;;;;;;;;5.60;99.90;;;;;;4751608;30;19926;-79
2022/03/08 09:08:10;;;;;;;;;;;5.70;99.90;;;;;;4735841;30;19922;-79
2022/03/08 09:10:35;;;;;;;;;;;5.80;99.90;;;;;;4751435;30;19922;-79
2022/03/08 09:13:01;;;;;;;;;;;5.90;99.90;;;;;;4751616;30;20352;-79
2022/03/08 09:15:27;;;;;;;;;;;6.00;99.90;;;;;;4751049;30;19929;-79
2022/03/08 09:17:52;;;;;;;;;;;6.10;99.90;;;;;;4751261;30;19922;-79
2022/03/08 09:20:18;;;;;;;;;;;6.30;99.90;;;;;;4751425;30;19976;-78
2022/03/08 09:22:43;;;;;;;;;;;6.40;99.90;;;;;;4751071;30;19929;-79
2022/03/08 09:25:09;;;;;;;;;;;6.50;99.90;;;;;;4751114;30;19972;-78
2022/03/08 09:27:34;;;;;;;;;;;6.60;99.90;;;;;;4751313;30;19933;-78
2022/03/08 09:30:00;;;;;;;;;;;6.70;99.90;;;;;;4750925;30;19922;-78
2022/03/08 09:32:26;;;;;;;;;;;6.80;99.90;;;;;;4751274;30;20442;-79
2022/03/08 09:34:51;;;;;;;;;;;6.90;99.90;;;;;;4736195;30;19922;-78
2022/03/08 09:37:17;;;;;;;;;;;7.00;99.90;;;;;;4750712;30;19922;-78
2022/03/08 09:39:42;;;;;;;;;;;7.20;99.90;;;;;;4750941;30;20004;-78
2022/03/08 09:42:08;;;;;;;;;;;7.30;99.90;;;;;;4751128;30;19954;-78
2022/03/08 09:44:33;;;;;;;;;;;7.30;99.90;;;;;;4750660;30;19979;-78
2022/03/08 09:46:59;;;;;;;;;;;7.40;99.90;;;;;;4750564;30;19933;-78
2022/03/08 09:49:25;;;;;;;;;;;7.40;99.90;;;;;;4751130;30;19922;-78
2022/03/08 09:51:52;;;;;;;;;;;7.40;97.10;;;;;;4750995;30;19922;-78
2022/03/08 09:54:18;;;;;;;;;;;7.50;99.90;;;;;;4750598;30;19926;-78
2022/03/08 09:56:43;;;;;;;;;;;7.70;99.90;;;;;;4750753;30;19926;-78
2022/03/08 09:59:09;;;;;;;;;;;7.80;99.90;;;;;;4750476;30;20009;-78
2022/03/08 10:01:34;;;;;;;;;;;7.90;99.90;;;;;;4750544;30;20013;-78
2022/03/08 10:04:01;;;;;;;;;;;8.00;99.80;;;;;;4750867;30;20029;-78
2022/03/08 10:06:50;;;;;;;;;;;8.00;96.20;;;;;;4750385;30;19926;-78
2022/03/08 10:09:17;;;;;;;;;;;8.10;97.50;;;;;;4750839;30;19922;-78
2022/03/08 10:11:43;;;;;;;;;;;8.20;98.60;;;;;;4750586;30;20153;-78
2022/03/08 10:14:13;;;;;;;;;;;8.30;94.80;;;;;;4750281;30;19979;-78
2022/03/08 10:16:42;;;;;;;;;;;8.30;89.00;;;;;;4750264;30;19926;-78
2022/03/08 10:19:09;;;;;;;;;;;8.40;88.80;;;;;;4750281;30;19922;-78
2022/03/08 10:21:37;;;;;;;;;;;8.50;95.40;;;;;;4750397;30;20421;-78
2022/03/08 10:24:18;;;;;;;;;;;8.60;96.60;;;;;;4750325;30;19929;-79
2022/03/08 10:26:46;;;;;;;;;;;8.80;93.30;;;;;;4750015;30;19930;-79
2022/03/08 10:29:13;;;;;;;;;;;8.90;84.80;;;;;;4750837;30;20004;-78
2022/03/08 10:31:38;;;;;;;;;;;8.90;86.40;;;;;;4751843;30;19922;-79
2022/03/08 10:34:06;;;;;;;;;;;9.00;77.30;;;;;;4751064;30;19929;-78
2022/03/08 10:36:32;;;;;;;;;;;9.00;80.80;;;;;;4750073;30;19933;-78
2022/03/08 10:39:16;;;;;;;;;;;9.00;66.60;;;;;;4750342;30;19929;-78
2022/03/08 10:42:08;;;;;;;;;;;9.00;67.50;;;;;;4735678;30;19933;-78
2022/03/08 10:44:37;;;;;;;;;;;9.10;81.60;;;;;;4752590;30;19922;-79
2022/03/08 10:47:06;;;;;;;;;;;9.20;66.90;;;;;;4751829;30;19930;-79
2022/03/08 10:49:33;;;;;;;;;;;9.30;68.60;;;;;;4752544;30;20012;-79
2022/03/08 10:52:00;;;;;;;;;;;9.40;67.30;;;;;;4751987;30;19929;-79
2022/03/08 10:54:25;;;;;;;;;;;9.40;62.50;;;;;;4752062;30;20305;-79
2022/03/08 10:56:50;;;;;;;;;;;9.50;64.00;;;;;;4753470;30;19925;-79
2022/03/08 10:59:18;;;;;;;;;;;9.60;66.10;;;;;;4753517;30;19922;-79
2022/03/08 11:01:43;;;;;;;;;;;9.70;63.70;;;;;;4750122;30;19922;-77
2022/03/08 11:04:22;;;;;;;;;;;9.70;62.00;;;;;;4749705;30;19998;-77
2022/03/08 11:06:50;;;;;;;;;;;9.80;60.80;;;;;;4749695;30;19926;-77
2022/03/08 11:09:16;;;;;;;;;;;9.90;60.90;;;;;;4751248;30;19922;-79
2022/03/08 11:11:41;;;;;;;;;;;10.00;61.70;;;;;;4752543;30;19928;-80
2022/03/08 11:14:08;;;;;;;;;;;10.10;59.80;;;;;;4756371;30;19926;-79
2022/03/08 11:16:33;;;;;;;;;;;10.10;61.40;;;;;;4769629;30;19921;-79
2022/03/08 11:18:59;;;;;;;;;;;10.20;59.10;;;;;;4769784;30;19922;-79
2022/03/08 11:21:26;;;;;;;;;;;10.30;57.40;;;;;;4771789;30;19922;-79
2022/03/08 11:23:52;;;;;;;;;;;10.50;59.40;;;;;;4771177;30;19922;-77
2022/03/08 11:26:18;;;;;;;;;;;10.50;56.50;;;;;;4767138;30;19925;-77
2022/03/08 11:28:45;;;;;;;;;;;10.50;56.50;;;;;;4762098;30;19929;-77
2022/03/08 11:31:10;;;;;;;;;;;10.50;57.20;;;;;;4751450;30;19962;-77
2022/03/08 11:33:45;;;;;;;;;;;10.60;57.30;;;;;;4753333;30;19926;-77
2022/03/08 11:36:29;;;;;;;;;;;10.60;55.10;;;;;;4752706;30;20177;-77
2022/03/08 11:39:14;;;;;;;;;;;10.70;55.70;;;;;;4753299;30;19922;-77
2022/03/08 11:41:40;;;;;;;;;;;10.80;57.10;;;;;;4753074;30;20409;-77
2022/03/08 11:44:06;;;;;;;;;;;10.90;55.30;;;;;;4752730;30;20448;-77
2022/03/08 11:46:32;;;;;;;;;;;11.00;54.50;;;;;;4752721;30;19926;-77
2022/03/08 11:49:03;;;;;;;;;;;11.10;55.50;;;;;;4753208;30;20298;-77
2022/03/08 11:51:29;;;;;;;;;;;11.30;56.80;;;;;;4752738;30;20016;-77
2022/03/08 11:54:04;;;;;;;;;;;11.40;56.60;;;;;;4753033;30;19929;-77
2022/03/08 11:56:42;;;;;;;;;;;11.60;56.90;;;;;;4737819;30;19972;-77
2022/03/08 11:59:09;;;;;;;;;;;11.60;54.30;;;;;;4752689;30;20020;-77
2022/03/08 12:01:36;;;;;;;;;;;11.70;53.00;;;;;;4752596;30;19922;-77
2022/03/08 12:04:20;;;;;;;;;;;11.70;53.50;;;;;;4752439;30;19922;-77
2022/03/08 12:06:54;;;;;;;;;;;11.80;55.10;;;;;;4753161;30;20094;-78
2022/03/08 12:09:21;;;;;;;;;;;12.00;55.20;;;;;;4752897;30;19973;-78
2022/03/08 12:11:59;;;;;;;;;;;12.20;52.40;;;;;;4752454;30;20023;-77
2022/03/08 12:14:25;;;;;;;;;;;12.20;51.30;;;;;;4752504;30;19922;-79
2022/03/08 12:16:52;;;;;;;;;;;12.20;53.00;;;;;;4752346;30;19994;-78
2022/03/08 12:19:22;;;;;;;;;;;12.20;53.60;;;;;;4752535;30;19922;-78
2022/03/08 12:21:53;;;;;;;;;;;12.20;51.80;;;;;;4752571;30;20718;-78
2022/03/08 12:24:21;;;;;;;;;;;12.30;51.30;;;;;;4754036;30;19995;-78
2022/03/08 12:26:57;;;;;;;;;;;12.30;50.20;;;;;;4755619;30;19930;-79
2022/03/08 12:29:33;;;;;;;;;;;12.40;48.70;;;;;;4755200;30;19922;-80
2022/03/08 12:32:01;;;;;;;;;;;12.40;49.40;;;;;;4755582;30;19929;-79
2022/03/08 12:34:32;;;;;;;;;;;12.40;47.70;;;;;;4754393;30;19922;-79
2022/03/08 12:37:07;;;;;;;;;;;12.50;49.10;;;;;;4754699;30;19922;-79
2022/03/08 12:40:02;;;;;;;;;;;12.70;50.30;;;;;;4753710;30;20340;-78
2022/03/08 12:42:31;;;;;;;;;;;12.80;49.80;;;;;;4747703;30;19965;-77
2022/03/08 12:45:02;;;;;;;;;;;12.90;48.80;;;;;;4752434;30;19939;-77
2022/03/08 12:47:28;;;;;;;;;;;12.90;47.60;;;;;;4752324;30;19956;-78
2022/03/08 12:49:58;;;;;;;;;;;12.90;48.00;;;;;;4753059;30;19929;-78
2022/03/08 12:52:25;;;;;;;;;;;13.00;49.10;;;;;;4752879;30;19922;-78
2022/03/08 12:54:51;;;;;;;;;;;13.00;48.20;;;;;;4752344;30;19926;-77
2022/03/08 12:57:16;;;;;;;;;;;13.10;48.70;;;;;;4737609;30;19922;-77
2022/03/08 12:59:43;;;;;;;;;;;13.30;48.50;;;;;;4752758;30;20406;-77
2022/03/08 13:02:08;;;;;;;;;;;13.40;47.70;;;;;;4753412;30;19929;-77
2022/03/08 13:04:34;;;;;;;;;;;13.70;49.50;;;;;;4753383;30;19922;-78
2022/03/08 13:07:07;;;;;;;;;;;14.00;48.00;;;;;;4753853;30;19926;-78
2022/03/08 13:09:53;;;;;;;;;;;14.00;46.50;;;;;;4755422;30;19922;-79
2022/03/08 13:12:23;;;;;;;;;;;13.90;45.50;;;;;;4754386;30;19929;-78
2022/03/08 13:15:07;;;;;;;;;;;13.90;48.00;;;;;;4757200;30;20297;-79
2022/03/08 13:17:33;;;;;;;;;;;14.00;46.50;;;;;;4741246;30;20378;-79
2022/03/08 13:19:58;;;;;;;;;;;14.10;47.30;;;;;;4756662;30;19926;-79
2022/03/08 13:22:24;;;;;;;;;;;14.40;47.90;;;;;;4756243;30;19922;-79
2022/03/08 13:25:07;;;;;;;;;;;14.60;46.80;;;;;;4755356;30;19969;-79
2022/03/08 13:27:51;;;;;;;;;;;14.80;45.70;;;;;;4756087;30;19980;-79
2022/03/08 13:30:20;;;;;;;;;;;14.90;47.10;;;;;;4755464;30;19929;-80
2022/03/08 13:32:45;;;;;;;;;;;14.90;45.40;;;;;;4742788;30;19939;-79
2022/03/08 13:35:11;;;;;;;;;;;14.80;45.50;;;;;;4755915;30;19925;-79
2022/03/08 13:37:49;;;;;;;;;;;14.90;47.30;;;;;;4741365;30;19922;-79
2022/03/08 13:40:25;;;;;;;;;;;15.10;44.40;;;;;;4755840;30;19922;-79
2022/03/08 13:42:51;;;;;;;;;;;15.00;46.90;;;;;;4755479;30;19984;-79
2022/03/08 13:45:16;;;;;;;;;;;15.10;46.10;;;;;;4757013;30;19926;-80
2022/03/08 13:47:42;;;;;;;;;;;15.20;45.10;;;;;;4755755;30;19981;-80
2022/03/08 13:50:07;;;;;;;;;;;15.30;45.30;;;;;;4757192;30;19922;-80
2022/03/08 13:52:34;;;;;;;;;;;15.30;45.50;;;;;;4740853;30;19922;-80
2022/03/08 13:54:59;;;;;;;;;;;15.20;44.80;;;;;;4759395;30;19922;-81
2022/03/08 13:57:25;;;;;;;;;;;15.20;44.60;;;;;;4743223;30;19951;-80
2022/03/08 13:59:52;;;;;;;;;;;15.30;45.90;;;;;;4756676;30;19973;-80
2022/03/08 14:02:18;;;;;;;;;;;15.30;45.60;;;;;;4755092;30;20349;-80
2022/03/08 14:04:44;;;;;;;;;;;15.20;43.80;;;;;;4756198;30;19985;-79
2022/03/08 14:07:09;;;;;;;;;;;15.20;44.70;;;;;;4755364;30;19965;-80
2022/03/08 14:09:35;;;;;;;;;;;15.20;42.50;;;;;;4755581;30;19922;-80
2022/03/08 14:12:02;;;;;;;;;;;15.00;43.70;;;;;;4756200;30;20412;-80
2022/03/08 14:14:31;;;;;;;;;;;15.20;45.20;;;;;;4756820;30;20385;-80
2022/03/08 14:16:56;;;;;;;;;;;15.50;45.40;;;;;;4755421;30;19973;-80
2022/03/08 14:19:38;;;;;;;;;;;15.60;43.30;;;;;;4755943;30;19926;-79